sensor_id;sensor_type;location;lat;lon;timestamp;pressure;altitude;pressure_sealevel;temperature;humidity
69855;BME280;57146;48.140;16.304;2023-11-18T00:00:23;99738.78;;;4.26;67.53
69855;BME280;57146;48.140;16.304;2023-11-18T00:02:51;99740.88;;;4.24;67.43
69855;BME280;57146;48.140;16.304;2023-11-18T00:05:18;99739.81;;;4.25;66.91
69855;BME280;57146;48.140;16.304;2023-11-18T00:07:45;99748.13;;;4.22;67.10
69855;BME280;57146;48.140;16.304;2023-11-18T00:10:12;99740.28;;;4.17;67.10
69855;BME280;57146;48.140;16.304;2023-11-18T00:12:39;99745.50;;;4.17;67.09
69855;BME280;57146;48.140;16.304;2023-11-18T00:15:06;99737.66;;;4.17;66.94
69855;BME280;57146;48.140;16.304;2023-11-18T00:17:33;99745.19;;;4.13;67.38
69855;BME280;57146;48.140;16.304;2023-11-18T00:20:00;99754.81;;;4.13;68.28
69855;BME280;57146;48.140;16.304;2023-11-18T00:22:27;99750.88;;;4.10;66.93
69855;BME280;57146;48.140;16.304;2023-11-18T00:24:54;99748.03;;;4.12;67.52
69855;BME280;57146;48.140;16.304;2023-11-18T00:27:21;99754.03;;;4.12;67.39
69855;BME280;57146;48.140;16.304;2023-11-18T00:29:49;99743.28;;;4.08;67.55
69855;BME280;57146;48.140;16.304;2023-11-18T00:32:15;99748.47;;;4.03;68.10
69855;BME280;57146;48.140;16.304;2023-11-18T00:34:43;99758.34;;;4.01;67.97
69855;BME280;57146;48.140;16.304;2023-11-18T00:37:09;99765.63;;;3.99;67.99
69855;BME280;57146;48.140;16.304;2023-11-18T00:39:37;99766.09;;;3.96;68.61
69855;BME280;57146;48.140;16.304;2023-11-18T00:42:05;99770.22;;;3.92;68.46
69855;BME280;57146;48.140;16.304;2023-11-18T00:44:31;99772.84;;;3.92;68.73
69855;BME280;57146;48.140;16.304;2023-11-18T00:46:58;99768.63;;;3.91;69.41
69855;BME280;57146;48.140;16.304;2023-11-18T00:49:25;99775.38;;;3.87;69.38
69855;BME280;57146;48.140;16.304;2023-11-18T00:51:53;99784.47;;;3.84;69.24
69855;BME280;57146;48.140;16.304;2023-11-18T00:54:20;99779.25;;;3.84;69.62
69855;BME280;57146;48.140;16.304;2023-11-18T00:56:46;99780.28;;;3.83;70.18
69855;BME280;57146;48.140;16.304;2023-11-18T00:59:14;99769.31;;;3.81;70.50
69855;BME280;57146;48.140;16.304;2023-11-18T01:01:41;99773.19;;;3.79;70.76
69855;BME280;57146;48.140;16.304;2023-11-18T01:04:08;99780.94;;;3.74;70.45
69855;BME280;57146;48.140;16.304;2023-11-18T01:06:36;99771.53;;;3.73;70.74
69855;BME280;57146;48.140;16.304;2023-11-18T01:09:03;99779.84;;;3.70;71.00
69855;BME280;57146;48.140;16.304;2023-11-18T01:11:30;99779.06;;;3.69;71.11
69855;BME280;57146;48.140;16.304;2023-11-18T01:13:57;99784.50;;;3.68;70.72
69855;BME280;57146;48.140;16.304;2023-11-18T01:16:24;99789.94;;;3.66;70.76
69855;BME280;57146;48.140;16.304;2023-11-18T01:18:51;99789.16;;;3.66;71.24
69855;BME280;57146;48.140;16.304;2023-11-18T01:21:18;99792.81;;;3.65;71.72
69855;BME280;57146;48.140;16.304;2023-11-18T01:23:45;99793.06;;;3.63;71.19
69855;BME280;57146;48.140;16.304;2023-11-18T01:26:12;99787.03;;;3.63;71.28
69855;BME280;57146;48.140;16.304;2023-11-18T01:28:39;99789.59;;;3.57;71.70
69855;BME280;57146;48.140;16.304;2023-11-18T01:31:07;99797.66;;;3.56;71.19
69855;BME280;57146;48.140;16.304;2023-11-18T01:33:34;99791.88;;;3.54;71.03
69855;BME280;57146;48.140;16.304;2023-11-18T01:36:01;99791.31;;;3.52;71.00
69855;BME280;57146;48.140;16.304;2023-11-18T01:38:29;99787.94;;;3.51;71.55
69855;BME280;57146;48.140;16.304;2023-11-18T01:40:56;99797.03;;;3.49;70.79
69855;BME280;57146;48.140;16.304;2023-11-18T01:43:23;99790.22;;;3.48;70.75
69855;BME280;57146;48.140;16.304;2023-11-18T01:45:50;99804.53;;;3.45;70.74
69855;BME280;57146;48.140;16.304;2023-11-18T01:48:17;99803.72;;;3.45;71.04
69855;BME280;57146;48.140;16.304;2023-11-18T01:50:44;99807.13;;;3.45;70.98
69855;BME280;57146;48.140;16.304;2023-11-18T01:53:12;99805.00;;;3.42;70.78
69855;BME280;57146;48.140;16.304;2023-11-18T01:55:41;99820.38;;;3.44;70.85
69855;BME280;57146;48.140;16.304;2023-11-18T01:58:09;99815.63;;;3.41;70.44
69855;BME280;57146;48.140;16.304;2023-11-18T02:00:41;99818.56;;;3.44;71.58
69855;BME280;57146;48.140;16.304;2023-11-18T02:03:08;99823.75;;;3.44;71.08
69855;BME280;57146;48.140;16.304;2023-11-18T02:05:36;99812.09;;;3.47;70.58
69855;BME280;57146;48.140;16.304;2023-11-18T02:08:04;99806.31;;;3.45;71.11
69855;BME280;57146;48.140;16.304;2023-11-18T02:10:31;99815.16;;;3.44;70.48
69855;BME280;57146;48.140;16.304;2023-11-18T02:15:36;99819.66;;;3.48;69.67
69855;BME280;57146;48.140;16.304;2023-11-18T02:18:05;99825.09;;;3.47;70.52
69855;BME280;57146;48.140;16.304;2023-11-18T02:20:33;99820.38;;;3.44;70.22
69855;BME280;57146;48.140;16.304;2023-11-18T02:23:01;99821.47;;;3.48;69.52
69855;BME280;57146;48.140;16.304;2023-11-18T02:25:29;99834.16;;;3.44;69.44
69855;BME280;57146;48.140;16.304;2023-11-18T02:28:00;99832.28;;;3.40;70.20
69855;BME280;57146;48.140;16.304;2023-11-18T02:30:28;99833.38;;;3.44;69.31
69855;BME280;57146;48.140;16.304;2023-11-18T02:33:03;99832.13;;;3.46;69.79
69855;BME280;57146;48.140;16.304;2023-11-18T02:35:43;99835.19;;;3.43;69.63
69855;BME280;57146;48.140;16.304;2023-11-18T02:38:12;99839.06;;;3.41;69.65
69855;BME280;57146;48.140;16.304;2023-11-18T02:40:40;99844.03;;;3.42;69.31
69855;BME280;57146;48.140;16.304;2023-11-18T02:43:09;99840.41;;;3.43;69.52
69855;BME280;57146;48.140;16.304;2023-11-18T02:45:37;99848.47;;;3.42;70.07
69855;BME280;57146;48.140;16.304;2023-11-18T02:48:05;99844.81;;;3.43;69.43
69855;BME280;57146;48.140;16.304;2023-11-18T02:50:32;99844.81;;;3.43;69.81
69855;BME280;57146;48.140;16.304;2023-11-18T02:52:59;99855.06;;;3.49;68.80
69855;BME280;57146;48.140;16.304;2023-11-18T02:55:27;99846.97;;;3.46;69.33
69855;BME280;57146;48.140;16.304;2023-11-18T02:57:54;99836.78;;;3.44;69.44
69855;BME280;57146;48.140;16.304;2023-11-18T03:00:21;99844.81;;;3.43;69.53
69855;BME280;57146;48.140;16.304;2023-11-18T03:02:49;99836.78;;;3.44;69.51
69855;BME280;57146;48.140;16.304;2023-11-18T03:05:17;99832.34;;;3.45;69.72
69855;BME280;57146;48.140;16.304;2023-11-18T03:07:45;99832.34;;;3.45;69.84
69855;BME280;57146;48.140;16.304;2023-11-18T03:10:12;99827.13;;;3.45;69.27
69855;BME280;57146;48.140;16.304;2023-11-18T03:12:39;99822.97;;;3.44;69.23
69855;BME280;57146;48.140;16.304;2023-11-18T03:15:07;99831.88;;;3.48;69.67
69855;BME280;57146;48.140;16.304;2023-11-18T03:17:34;99829.75;;;3.45;69.25
69855;BME280;57146;48.140;16.304;2023-11-18T03:20:01;99830.00;;;3.43;69.32
69855;BME280;57146;48.140;16.304;2023-11-18T03:22:28;99828.19;;;3.44;69.89
69855;BME280;57146;48.140;16.304;2023-11-18T03:24:55;99836.78;;;3.44;69.94
69855;BME280;57146;48.140;16.304;2023-11-18T03:27:22;99835.81;;;3.50;69.44
69855;BME280;57146;48.140;16.304;2023-11-18T03:29:49;99855.56;;;3.46;69.40
69855;BME280;57146;48.140;16.304;2023-11-18T03:32:20;99856.81;;;3.44;70.65
69855;BME280;57146;48.140;16.304;2023-11-18T03:34:47;99843.47;;;3.40;71.36
69855;BME280;57146;48.140;16.304;2023-11-18T03:37:14;99845.59;;;3.43;70.97
69855;BME280;57146;48.140;16.304;2023-11-18T03:39:41;99850.56;;;3.45;71.34
69855;BME280;57146;48.140;16.304;2023-11-18T03:42:08;99857.53;;;3.39;71.54
69855;BME280;57146;48.140;16.304;2023-11-18T03:44:35;99863.50;;;3.40;71.89
69855;BME280;57146;48.140;16.304;2023-11-18T03:47:02;99857.53;;;3.39;71.54
69855;BME280;57146;48.140;16.304;2023-11-18T03:49:28;99862.47;;;3.41;71.06
69855;BME280;57146;48.140;16.304;2023-11-18T03:51:55;99858.06;;;3.41;71.12
69855;BME280;57146;48.140;16.304;2023-11-18T03:54:22;99858.56;;;3.38;71.45
69855;BME280;57146;48.140;16.304;2023-11-18T03:56:49;99858.56;;;3.38;72.05
69855;BME280;57146;48.140;16.304;2023-11-18T03:59:16;99860.28;;;3.32;72.08
69855;BME280;57146;48.140;16.304;2023-11-18T04:01:43;99863.34;;;3.29;71.47
69855;BME280;57146;48.140;16.304;2023-11-18T04:04:10;99864.06;;;3.25;72.29
69855;BME280;57146;48.140;16.304;2023-11-18T04:06:37;99872.41;;;3.27;71.59
69855;BME280;57146;48.140;16.304;2023-11-18T04:09:04;99870.38;;;3.29;72.00
69855;BME280;57146;48.140;16.304;2023-11-18T04:11:31;99864.38;;;3.28;71.67
69855;BME280;57146;48.140;16.304;2023-11-18T04:13:58;99875.59;;;3.29;71.55
69855;BME280;57146;48.140;16.304;2023-11-18T04:16:24;99867.53;;;3.30;71.09
69855;BME280;57146;48.140;16.304;2023-11-18T04:18:51;99870.44;;;3.34;70.77
69855;BME280;57146;48.140;16.304;2023-11-18T04:21:18;99874.09;;;3.33;71.17
69855;BME280;57146;48.140;16.304;2023-11-18T04:23:45;99874.88;;;3.33;71.28
69855;BME280;57146;48.140;16.304;2023-11-18T04:26:13;99878.56;;;3.38;70.15
69855;BME280;57146;48.140;16.304;2023-11-18T04:28:41;99876.78;;;3.38;70.84
69855;BME280;57146;48.140;16.304;2023-11-18T04:31:08;99883.56;;;3.39;71.17
69855;BME280;57146;48.140;16.304;2023-11-18T04:33:34;99887.25;;;3.43;69.83
69855;BME280;57146;48.140;16.304;2023-11-18T04:36:01;99891.75;;;3.48;69.89
69855;BME280;57146;48.140;16.304;2023-11-18T04:38:28;99891.53;;;3.49;69.63
69855;BME280;57146;48.140;16.304;2023-11-18T04:40:55;99889.22;;;3.53;69.40
69855;BME280;57146;48.140;16.304;2023-11-18T04:43:22;99901.28;;;3.59;69.15
69855;BME280;57146;48.140;16.304;2023-11-18T04:46:07;99901.84;;;3.61;69.89
69855;BME280;57146;48.140;16.304;2023-11-18T04:48:34;99898.75;;;3.64;68.97
69855;BME280;57146;48.140;16.304;2023-11-18T04:51:07;99895.91;;;3.66;68.29
69855;BME280;57146;48.140;16.304;2023-11-18T04:53:34;99906.63;;;3.69;67.97
69855;BME280;57146;48.140;16.304;2023-11-18T04:56:01;99893.63;;;3.69;68.91
69855;BME280;57146;48.140;16.304;2023-11-18T04:58:28;99899.38;;;3.71;68.28
69855;BME280;57146;48.140;16.304;2023-11-18T05:00:55;99903.81;;;3.71;68.30
69855;BME280;57146;48.140;16.304;2023-11-18T05:03:21;99906.72;;;3.74;68.54
69855;BME280;57146;48.140;16.304;2023-11-18T05:05:48;99902.06;;;3.76;67.83
69855;BME280;57146;48.140;16.304;2023-11-18T05:08:20;99907.88;;;3.83;68.24
69855;BME280;57146;48.140;16.304;2023-11-18T05:10:48;99906.00;;;3.79;68.34
69855;BME280;57146;48.140;16.304;2023-11-18T05:13:19;99902.84;;;3.77;68.37
69855;BME280;57146;48.140;16.304;2023-11-18T05:15:47;99898.44;;;3.77;68.49
69855;BME280;57146;48.140;16.304;2023-11-18T05:18:14;99909.94;;;3.81;68.54
69855;BME280;57146;48.140;16.304;2023-11-18T05:20:43;99907.56;;;3.80;68.75
69855;BME280;57146;48.140;16.304;2023-11-18T05:23:11;99904.97;;;3.80;68.79
69855;BME280;57146;48.140;16.304;2023-11-18T05:25:42;99908.03;;;3.77;69.08
69855;BME280;57146;48.140;16.304;2023-11-18T05:28:10;99908.78;;;3.72;68.37
69855;BME280;57146;48.140;16.304;2023-11-18T05:30:38;99917.63;;;3.71;68.52
69855;BME280;57146;48.140;16.304;2023-11-18T05:33:07;99915.53;;;3.73;68.21
69855;BME280;57146;48.140;16.304;2023-11-18T05:35:34;99922.56;;;3.73;69.05
69855;BME280;57146;48.140;16.304;2023-11-18T05:38:01;99933.00;;;3.73;69.55
69855;BME280;57146;48.140;16.304;2023-11-18T05:40:28;99924.97;;;3.74;69.33
69855;BME280;57146;48.140;16.304;2023-11-18T05:42:55;99935.13;;;3.76;68.32
69855;BME280;57146;48.140;16.304;2023-11-18T05:45:22;99936.69;;;3.77;68.30
69855;BME280;57146;48.140;16.304;2023-11-18T05:47:49;99937.19;;;3.74;68.74
69855;BME280;57146;48.140;16.304;2023-11-18T05:50:16;99944.28;;;3.78;68.26
69855;BME280;57146;48.140;16.304;2023-11-18T05:52:43;99937.19;;;3.74;68.27
69855;BME280;57146;48.140;16.304;2023-11-18T05:55:10;99951.53;;;3.76;67.84
69855;BME280;57146;48.140;16.304;2023-11-18T05:57:37;99947.28;;;3.70;68.40
69855;BME280;57146;48.140;16.304;2023-11-18T06:00:05;99956.53;;;3.78;68.53
69855;BME280;57146;48.140;16.304;2023-11-18T06:02:37;99955.72;;;3.77;68.00
69855;BME280;57146;48.140;16.304;2023-11-18T06:05:05;99961.94;;;3.76;68.93
69855;BME280;57146;48.140;16.304;2023-11-18T06:07:32;99971.09;;;3.79;68.30
69855;BME280;57146;48.140;16.304;2023-11-18T06:09:59;99970.84;;;3.80;68.21
69855;BME280;57146;48.140;16.304;2023-11-18T06:12:26;99976.56;;;3.77;68.45
69855;BME280;57146;48.140;16.304;2023-11-18T06:14:53;99996.38;;;3.78;68.31
69855;BME280;57146;48.140;16.304;2023-11-18T06:17:20;100004.97;;;3.79;68.96
69855;BME280;57146;48.140;16.304;2023-11-18T06:19:47;100000.22;;;3.76;68.19
69855;BME280;57146;48.140;16.304;2023-11-18T06:22:14;100002.03;;;3.75;68.54
69855;BME280;57146;48.140;16.304;2023-11-18T06:24:41;100017.72;;;3.80;68.76
69855;BME280;57146;48.140;16.304;2023-11-18T06:27:08;100014.59;;;3.78;68.59
69855;BME280;57146;48.140;16.304;2023-11-18T06:29:35;100024.44;;;3.76;69.24
69855;BME280;57146;48.140;16.304;2023-11-18T06:32:04;100026.91;;;3.83;68.93
69855;BME280;57146;48.140;16.304;2023-11-18T06:34:31;100028.97;;;3.81;68.83
69855;BME280;57146;48.140;16.304;2023-11-18T06:36:58;100031.78;;;3.79;69.08
69855;BME280;57146;48.140;16.304;2023-11-18T06:39:25;100042.22;;;3.79;69.24
69855;BME280;57146;48.140;16.304;2023-11-18T06:41:52;100041.34;;;3.74;69.93
69855;BME280;57146;48.140;16.304;2023-11-18T06:44:19;100049.25;;;3.79;69.05
69855;BME280;57146;48.140;16.304;2023-11-18T06:46:46;100048.13;;;3.75;69.04
69855;BME280;57146;48.140;16.304;2023-11-18T06:49:13;100053.34;;;3.75;69.31
69855;BME280;57146;48.140;16.304;2023-11-18T06:51:39;100052.56;;;3.74;69.09
69855;BME280;57146;48.140;16.304;2023-11-18T06:54:07;100055.94;;;3.75;69.55
69855;BME280;57146;48.140;16.304;2023-11-18T06:56:36;100058.31;;;3.76;68.89
69855;BME280;57146;48.140;16.304;2023-11-18T06:59:05;100062.72;;;3.76;69.17
69855;BME280;57146;48.140;16.304;2023-11-18T07:01:34;100074.25;;;3.80;69.57
69855;BME280;57146;48.140;16.304;2023-11-18T07:04:05;100080.25;;;3.80;68.67
69855;BME280;57146;48.140;16.304;2023-11-18T07:06:32;100074.03;;;3.81;68.74
69855;BME280;57146;48.140;16.304;2023-11-18T07:08:59;100074.03;;;3.81;68.84
69855;BME280;57146;48.140;16.304;2023-11-18T07:11:26;100079.56;;;3.85;69.67
69855;BME280;57146;48.140;16.304;2023-11-18T07:13:53;100077.16;;;3.83;69.12
69855;BME280;57146;48.140;16.304;2023-11-18T07:16:20;100089.25;;;3.90;68.90
69855;BME280;57146;48.140;16.304;2023-11-18T07:18:48;100085.88;;;3.89;68.99
69855;BME280;57146;48.140;16.304;2023-11-18T07:21:15;100081.91;;;3.87;69.31
69855;BME280;57146;48.140;16.304;2023-11-18T07:23:42;100084.38;;;3.93;68.83
69855;BME280;57146;48.140;16.304;2023-11-18T07:26:09;100083.34;;;3.94;69.50
69855;BME280;57146;48.140;16.304;2023-11-18T07:28:36;100079.47;;;3.97;68.74
69855;BME280;57146;48.140;16.304;2023-11-18T07:31:03;100088.66;;;3.99;69.09
69855;BME280;57146;48.140;16.304;2023-11-18T07:33:31;100087.88;;;3.99;69.01
69855;BME280;57146;48.140;16.304;2023-11-18T07:35:58;100089.66;;;3.98;68.66
69855;BME280;57146;48.140;16.304;2023-11-18T07:38:25;100092.56;;;4.02;68.92
69855;BME280;57146;48.140;16.304;2023-11-18T07:40:52;100092.03;;;4.00;68.79
69855;BME280;57146;48.140;16.304;2023-11-18T07:43:19;100101.44;;;4.01;69.31
69855;BME280;57146;48.140;16.304;2023-11-18T07:45:47;100093.38;;;4.02;68.75
69855;BME280;57146;48.140;16.304;2023-11-18T07:48:14;100101.53;;;4.06;68.29
69855;BME280;57146;48.140;16.304;2023-11-18T07:50:41;100106.50;;;4.07;68.56
69855;BME280;57146;48.140;16.304;2023-11-18T07:53:08;100105.44;;;4.08;68.66
69855;BME280;57146;48.140;16.304;2023-11-18T07:55:35;100109.34;;;4.06;69.07
69855;BME280;57146;48.140;16.304;2023-11-18T07:58:02;100107.53;;;4.06;68.44
69855;BME280;57146;48.140;16.304;2023-11-18T08:00:28;100110.44;;;4.10;68.83
69855;BME280;57146;48.140;16.304;2023-11-18T08:02:55;100113.59;;;4.12;68.15
69855;BME280;57146;48.140;16.304;2023-11-18T08:05:22;100113.84;;;4.11;68.47
69855;BME280;57146;48.140;16.304;2023-11-18T08:07:49;100117.78;;;4.13;68.52
69855;BME280;57146;48.140;16.304;2023-11-18T08:10:17;100111.78;;;4.13;68.83
69855;BME280;57146;48.140;16.304;2023-11-18T08:12:44;100112.34;;;4.15;68.27
69855;BME280;57146;48.140;16.304;2023-11-18T08:15:11;100112.34;;;4.15;68.86
69855;BME280;57146;48.140;16.304;2023-11-18T08:17:38;100114.69;;;4.16;68.91
69855;BME280;57146;48.140;16.304;2023-11-18T08:20:05;100121.97;;;4.14;68.91
69855;BME280;57146;48.140;16.304;2023-11-18T08:22:33;100123.06;;;4.18;68.56
69855;BME280;57146;48.140;16.304;2023-11-18T08:25:00;100115.03;;;4.20;68.87
69855;BME280;57146;48.140;16.304;2023-11-18T08:27:27;100121.91;;;4.26;69.23
69855;BME280;57146;48.140;16.304;2023-11-18T08:29:53;100123.50;;;4.27;69.13
69855;BME280;57146;48.140;16.304;2023-11-18T08:32:20;100128.47;;;4.28;68.99
69855;BME280;57146;48.140;16.304;2023-11-18T08:34:50;100129.50;;;4.27;69.57
69855;BME280;57146;48.140;16.304;2023-11-18T08:37:17;100131.13;;;4.33;69.09
69855;BME280;57146;48.140;16.304;2023-11-18T08:39:44;100124.97;;;4.40;69.83
69855;BME280;57146;48.140;16.304;2023-11-18T08:42:11;100127.44;;;4.46;68.20
69855;BME280;57146;48.140;16.304;2023-11-18T08:44:38;100130.19;;;4.56;68.12
69855;BME280;57146;48.140;16.304;2023-11-18T08:47:05;100122.69;;;4.60;69.01
69855;BME280;57146;48.140;16.304;2023-11-18T08:49:32;100132.53;;;4.75;68.73
69855;BME280;57146;48.140;16.304;2023-11-18T08:51:59;100121.53;;;4.73;67.85
69855;BME280;57146;48.140;16.304;2023-11-18T08:54:26;100130.28;;;4.84;68.22
69855;BME280;57146;48.140;16.304;2023-11-18T08:56:53;100127.78;;;4.89;68.66
69855;BME280;57146;48.140;16.304;2023-11-18T08:59:21;100119.22;;;4.93;68.43
69855;BME280;57146;48.140;16.304;2023-11-18T09:01:48;100121.34;;;4.96;68.79
69855;BME280;57146;48.140;16.304;2023-11-18T09:04:15;100126.31;;;4.98;67.45
69855;BME280;57146;48.140;16.304;2023-11-18T09:06:42;100122.44;;;5.00;67.98
69855;BME280;57146;48.140;16.304;2023-11-18T09:09:09;100127.13;;;4.98;67.71
69855;BME280;57146;48.140;16.304;2023-11-18T09:11:36;100120.31;;;4.97;67.85
69855;BME280;57146;48.140;16.304;2023-11-18T09:14:02;100134.13;;;4.98;67.24
69855;BME280;57146;48.140;16.304;2023-11-18T09:16:29;100126.63;;;5.01;67.39
69855;BME280;57146;48.140;16.304;2023-11-18T09:18:57;100130.88;;;5.08;67.81
69855;BME280;57146;48.140;16.304;2023-11-18T09:21:24;100135.66;;;5.16;66.73
69855;BME280;57146;48.140;16.304;2023-11-18T09:23:52;100132.09;;;5.22;67.32
69855;BME280;57146;48.140;16.304;2023-11-18T09:26:19;100127.44;;;5.24;66.32
69855;BME280;57146;48.140;16.304;2023-11-18T09:28:46;100132.81;;;5.39;67.30
69855;BME280;57146;48.140;16.304;2023-11-18T09:31:13;100141.81;;;5.48;66.37
69855;BME280;57146;48.140;16.304;2023-11-18T09:33:41;100135.28;;;5.51;65.55
69855;BME280;57146;48.140;16.304;2023-11-18T09:36:09;100139.75;;;5.50;66.45
69855;BME280;57146;48.140;16.304;2023-11-18T09:38:37;100139.03;;;5.55;65.75
69855;BME280;57146;48.140;16.304;2023-11-18T09:41:05;100138.03;;;5.61;66.16
69855;BME280;57146;48.140;16.304;2023-11-18T09:43:33;100136.63;;;5.53;65.82
69855;BME280;57146;48.140;16.304;2023-11-18T09:46:05;100132.28;;;5.59;66.70
69855;BME280;57146;48.140;16.304;2023-11-18T09:48:33;100138.09;;;5.66;66.21
69855;BME280;57146;48.140;16.304;2023-11-18T09:51:00;100133.88;;;5.65;65.62
69855;BME280;57146;48.140;16.304;2023-11-18T09:53:29;100140.41;;;5.63;66.52
69855;BME280;57146;48.140;16.304;2023-11-18T09:56:07;100139.06;;;5.60;66.73
69855;BME280;57146;48.140;16.304;2023-11-18T09:58:41;100139.84;;;5.61;66.43
69855;BME280;57146;48.140;16.304;2023-11-18T10:01:13;100135.72;;;5.65;66.79
69855;BME280;57146;48.140;16.304;2023-11-18T10:03:41;100134.19;;;5.69;67.39
69855;BME280;57146;48.140;16.304;2023-11-18T10:06:09;100138.22;;;5.55;66.70
69855;BME280;57146;48.140;16.304;2023-11-18T10:08:37;100129.38;;;5.56;66.93
69855;BME280;57146;48.140;16.304;2023-11-18T10:11:05;100128.56;;;5.55;67.17
69855;BME280;57146;48.140;16.304;2023-11-18T10:13:32;100138.28;;;5.60;67.24
69855;BME280;57146;48.140;16.304;2023-11-18T10:16:02;100139.75;;;5.50;66.54
69855;BME280;57146;48.140;16.304;2023-11-18T10:18:29;100127.53;;;5.56;67.59
69855;BME280;57146;48.140;16.304;2023-11-18T10:20:56;100129.47;;;5.66;66.80
69855;BME280;57146;48.140;16.304;2023-11-18T10:23:23;100134.25;;;5.74;66.77
69855;BME280;57146;48.140;16.304;2023-11-18T10:25:55;100121.78;;;5.81;66.09
69855;BME280;57146;48.140;16.304;2023-11-18T10:28:34;100118.97;;;5.88;65.64
69855;BME280;57146;48.140;16.304;2023-11-18T10:31:03;100129.63;;;5.81;65.25
69855;BME280;57146;48.140;16.304;2023-11-18T10:35:59;100126.31;;;5.91;65.18
69855;BME280;57146;48.140;16.304;2023-11-18T10:38:26;100130.97;;;5.84;65.31
69855;BME280;57146;48.140;16.304;2023-11-18T10:40:58;100124.91;;;5.83;65.19
69855;BME280;57146;48.140;16.304;2023-11-18T10:43:25;100131.63;;;5.74;64.67
69855;BME280;57146;48.140;16.304;2023-11-18T10:45:52;100123.94;;;5.62;65.25
69855;BME280;57146;48.140;16.304;2023-11-18T10:48:31;100128.06;;;5.58;65.81
69855;BME280;57146;48.140;16.304;2023-11-18T10:50:58;100130.94;;;5.57;65.81
69855;BME280;57146;48.140;16.304;2023-11-18T10:53:25;100130.06;;;5.51;65.81
69855;BME280;57146;48.140;16.304;2023-11-18T10:55:53;100128.56;;;5.33;65.84
69855;BME280;57146;48.140;16.304;2023-11-18T10:58:20;100125.97;;;5.33;66.73
69855;BME280;57146;48.140;16.304;2023-11-18T11:00:48;100128.09;;;5.36;67.09
69855;BME280;57146;48.140;16.304;2023-11-18T11:03:15;100119.25;;;5.37;66.77
69855;BME280;57146;48.140;16.304;2023-11-18T11:05:42;100122.94;;;5.41;67.77
69855;BME280;57146;48.140;16.304;2023-11-18T11:08:14;100114.63;;;5.44;67.05
69855;BME280;57146;48.140;16.304;2023-11-18T11:10:44;100110.97;;;5.45;67.19
69855;BME280;57146;48.140;16.304;2023-11-18T11:13:12;100115.22;;;5.51;66.38
69855;BME280;57146;48.140;16.304;2023-11-18T11:15:42;100122.31;;;5.56;66.80
69855;BME280;57146;48.140;16.304;2023-11-18T11:18:27;100120.75;;;5.55;65.90
69855;BME280;57146;48.140;16.304;2023-11-18T11:23:34;100115.75;;;5.53;66.02
69855;BME280;57146;48.140;16.304;2023-11-18T11:32:02;100116.75;;;5.74;66.38
69855;BME280;57146;48.140;16.304;2023-11-18T11:34:35;100121.22;;;5.79;66.50
69855;BME280;57146;48.140;16.304;2023-11-18T11:37:03;100127.09;;;5.91;66.96
69855;BME280;57146;48.140;16.304;2023-11-18T11:39:31;100117.19;;;5.93;65.79
69855;BME280;57146;48.140;16.304;2023-11-18T11:41:59;100133.97;;;5.97;66.07
69855;BME280;57146;48.140;16.304;2023-11-18T11:44:26;100130.84;;;6.00;64.78
69855;BME280;57146;48.140;16.304;2023-11-18T11:46:57;100127.25;;;6.07;66.21
69855;BME280;57146;48.140;16.304;2023-11-18T11:49:27;100129.91;;;6.12;65.20
69855;BME280;57146;48.140;16.304;2023-11-18T11:52:09;100137.25;;;6.15;64.92
69855;BME280;57146;48.140;16.304;2023-11-18T11:54:56;100138.78;;;6.11;64.54
69855;BME280;57146;48.140;16.304;2023-11-18T11:57:26;100147.38;;;6.06;64.52
69855;BME280;57146;48.140;16.304;2023-11-18T11:59:55;100134.31;;;6.06;64.40
69855;BME280;57146;48.140;16.304;2023-11-18T12:02:23;100142.69;;;6.08;64.28
69855;BME280;57146;48.140;16.304;2023-11-18T12:04:53;100136.63;;;6.03;63.92
69855;BME280;57146;48.140;16.304;2023-11-18T12:07:21;100133.25;;;6.02;65.07
69855;BME280;57146;48.140;16.304;2023-11-18T12:09:55;100132.47;;;6.02;64.79
69855;BME280;57146;48.140;16.304;2023-11-18T12:12:23;100141.88;;;6.03;64.38
69855;BME280;57146;48.140;16.304;2023-11-18T12:14:55;100136.34;;;5.99;64.46
69855;BME280;57146;48.140;16.304;2023-11-18T12:17:23;100142.00;;;5.91;64.54
69855;BME280;57146;48.140;16.304;2023-11-18T12:19:51;100147.56;;;5.94;65.33
69855;BME280;57146;48.140;16.304;2023-11-18T12:22:19;100144.06;;;5.89;63.68
69855;BME280;57146;48.140;16.304;2023-11-18T12:27:42;100148.72;;;5.87;64.67
69855;BME280;57146;48.140;16.304;2023-11-18T12:33:07;100148.66;;;5.76;64.64
69855;BME280;57146;48.140;16.304;2023-11-18T12:47:01;100161.78;;;5.60;65.84
69855;BME280;57146;48.140;16.304;2023-11-18T12:49:29;100158.88;;;5.56;67.54
69855;BME280;57146;48.140;16.304;2023-11-18T12:51:56;100165.44;;;5.59;68.10
69855;BME280;57146;48.140;16.304;2023-11-18T12:54:23;100164.59;;;5.53;65.57
69855;BME280;57146;48.140;16.304;2023-11-18T12:56:51;100155.19;;;5.52;66.23
69855;BME280;57146;48.140;16.304;2023-11-18T12:59:18;100168.41;;;5.45;66.30
69855;BME280;57146;48.140;16.304;2023-11-18T13:01:47;100172.06;;;5.44;66.42
69855;BME280;57146;48.140;16.304;2023-11-18T13:04:14;100167.63;;;5.45;66.63
69855;BME280;57146;48.140;16.304;2023-11-18T13:06:41;100168.41;;;5.45;66.01
69855;BME280;57146;48.140;16.304;2023-11-18T13:09:08;100167.16;;;5.48;66.44
69855;BME280;57146;48.140;16.304;2023-11-18T13:11:36;100169.03;;;5.52;65.87
69855;BME280;57146;48.140;16.304;2023-11-18T13:14:03;100163.00;;;5.52;65.52
69855;BME280;57146;48.140;16.304;2023-11-18T13:16:31;100158.81;;;5.51;64.28
69855;BME280;57146;48.140;16.304;2023-11-18T13:18:58;100155.41;;;5.50;64.28
69855;BME280;57146;48.140;16.304;2023-11-18T13:21:25;100159.06;;;5.49;64.16
69855;BME280;57146;48.140;16.304;2023-11-18T13:23:53;100160.94;;;5.54;62.87
69855;BME280;57146;48.140;16.304;2023-11-18T13:26:20;100154.13;;;5.53;63.23
69855;BME280;57146;48.140;16.304;2023-11-18T13:28:47;100161.72;;;5.55;62.04